Time;durP1;ratioP1;P1;durP2;ratioP2;P2;SDS_P1;SDS_P2;PMS_P1;PMS_P2;Temp;Humidity;BMP_temperature;BMP_pressure;BME280_temperature;BME280_humidity;BME280_pressure;Samples;Min_cycle;Max_cycle;Signal;HPM_P1;HPM_P2
2021/04/25 00:00:14;;;;;;;2.70;0.32;;;6.30;64.90;;;;;;3594981;40;20358;-78
2021/04/25 00:02:40;;;;;;;2.10;0.32;;;6.40;65.00;;;;;;3596167;39;20070;-78
2021/04/25 00:05:08;;;;;;;2.15;0.30;;;6.30;65.30;;;;;;3596158;39;20117;-78
2021/04/25 00:07:34;;;;;;;3.72;0.30;;;6.30;64.00;;;;;;3596095;39;20243;-77
2021/04/25 00:10:00;;;;;;;10.57;0.60;;;6.30;65.20;;;;;;3595656;40;20038;-78
2021/04/25 00:12:26;;;;;;;0.75;0.10;;;6.30;64.00;;;;;;3592940;40;20044;-79
2021/04/25 00:14:52;;;;;;;3.25;0.30;;;6.30;64.80;;;;;;3595342;40;20032;-79
2021/04/25 00:17:18;;;;;;;1.38;0.22;;;6.30;64.20;;;;;;3595816;40;20047;-78
2021/04/25 00:19:44;;;;;;;6.18;0.57;;;6.30;64.00;;;;;;3593225;40;20036;-78
2021/04/25 00:22:10;;;;;;;4.07;1.00;;;6.30;64.60;;;;;;3584821;40;20024;-78
2021/04/25 00:24:36;;;;;;;1.17;0.20;;;6.30;67.20;;;;;;3595377;40;20039;-78
2021/04/25 00:27:02;;;;;;;7.30;0.68;;;6.30;65.30;;;;;;3603774;39;20043;-79
2021/04/25 00:29:27;;;;;;;1.52;0.10;;;6.20;65.60;;;;;;3600471;39;20039;-79
2021/04/25 00:31:53;;;;;;;0.82;0.52;;;6.20;65.10;;;;;;3597596;40;20043;-78
2021/04/25 00:34:19;;;;;;;1.73;0.10;;;6.20;65.90;;;;;;3597161;40;20048;-79
2021/04/25 00:36:46;;;;;;;2.65;0.30;;;6.20;64.10;;;;;;3597779;39;20034;-79
2021/04/25 00:39:12;;;;;;;0.73;0.10;;;6.20;63.90;;;;;;3597255;40;20047;-78
2021/04/25 00:41:38;;;;;;;2.20;0.20;;;6.20;64.80;;;;;;3597561;40;20141;-78
2021/04/25 00:44:10;;;;;;;2.13;0.90;;;6.20;66.10;;;;;;3597735;40;20047;-78
2021/04/25 00:46:37;;;;;;;3.28;0.22;;;6.20;65.10;;;;;;3588560;40;20047;-78
2021/04/25 00:49:04;;;;;;;2.10;0.13;;;6.20;66.00;;;;;;3598147;40;20424;-79
2021/04/25 00:51:30;;;;;;;1.38;0.10;;;6.30;66.10;;;;;;3587276;40;20121;-78
2021/04/25 00:53:56;;;;;;;5.70;0.20;;;6.30;67.00;;;;;;3597715;40;20350;-78
2021/04/25 00:56:23;;;;;;;1.95;0.20;;;6.30;66.70;;;;;;3597320;40;20040;-78
2021/04/25 00:58:50;;;;;;;1.35;0.20;;;6.30;68.20;;;;;;3578231;40;20040;-78
2021/04/25 01:01:17;;;;;;;2.28;0.25;;;6.30;64.50;;;;;;3594355;40;20055;-78
2021/04/25 01:03:42;;;;;;;3.10;0.20;;;6.30;65.60;;;;;;3597373;40;20036;-78
2021/04/25 01:06:09;;;;;;;1.95;0.20;;;6.30;65.80;;;;;;3587989;40;20055;-78
2021/04/25 01:08:35;;;;;;;7.10;1.60;;;6.30;67.80;;;;;;3597703;40;20104;-79
2021/04/25 01:11:01;;;;;;;0.60;0.20;;;6.30;66.20;;;;;;3597645;40;20044;-79
2021/04/25 01:13:27;;;;;;;5.68;0.65;;;6.30;66.90;;;;;;3596937;40;20120;-78
2021/04/25 01:15:52;;;;;;;1.45;0.10;;;6.30;66.90;;;;;;3588095;40;20035;-79
2021/04/25 01:18:18;;;;;;;3.75;0.47;;;6.30;66.60;;;;;;3597127;39;20156;-78
2021/04/25 01:20:44;;;;;;;3.33;0.10;;;6.30;66.50;;;;;;3579560;40;20028;-78
2021/04/25 01:23:14;;;;;;;7.32;0.45;;;6.30;67.20;;;;;;3579129;40;20052;-78
2021/04/25 01:25:40;;;;;;;1.95;0.30;;;6.30;68.00;;;;;;3599425;39;20043;-78
2021/04/25 01:28:05;;;;;;;3.78;0.17;;;6.30;68.80;;;;;;3598285;39;20100;-78
2021/04/25 01:30:33;;;;;;;1.33;0.10;;;6.30;69.50;;;;;;3600035;39;20068;-78
2021/04/25 01:32:59;;;;;;;5.15;0.30;;;6.30;70.00;;;;;;3597557;40;20088;-78
2021/04/25 01:35:25;;;;;;;6.20;1.00;;;6.30;67.20;;;;;;3596723;39;20040;-79
2021/04/25 01:37:53;;;;;;;1.33;0.10;;;6.30;67.70;;;;;;3597398;39;20064;-78
2021/04/25 01:40:21;;;;;;;2.97;0.30;;;6.20;67.50;;;;;;3587542;40;20133;-79
2021/04/25 01:42:46;;;;;;;2.60;0.25;;;6.20;67.30;;;;;;3579559;40;20050;-79
2021/04/25 01:45:16;;;;;;;1.40;0.10;;;6.20;67.30;;;;;;3596933;40;20040;-78
2021/04/25 01:47:47;;;;;;;2.38;0.28;;;6.20;65.20;;;;;;3597372;40;20210;-79
2021/04/25 01:50:14;;;;;;;5.35;0.10;;;6.10;66.70;;;;;;3579356;40;20036;-79
2021/04/25 01:52:40;;;;;;;2.83;1.85;;;6.20;66.20;;;;;;3597150;40;20051;-78
2021/04/25 01:55:09;;;;;;;2.90;0.10;;;6.00;65.90;;;;;;3596961;40;20039;-79
2021/04/25 01:57:36;;;;;;;3.80;0.10;;;6.00;66.50;;;;;;3586375;40;20125;-78
2021/04/25 02:00:05;;;;;;;1.88;0.10;;;6.00;65.70;;;;;;3577789;40;20067;-79
2021/04/25 02:02:32;;;;;;;0.80;0.30;;;6.00;67.90;;;;;;3577680;40;20036;-79
2021/04/25 02:04:57;;;;;;;2.85;0.10;;;6.00;65.60;;;;;;3578045;40;20051;-81
2021/04/25 02:07:24;;;;;;;2.08;0.17;;;6.00;66.90;;;;;;3588530;40;20059;-78
2021/04/25 02:09:49;;;;;;;4.88;0.32;;;6.00;66.70;;;;;;3596885;40;20048;-78
2021/04/25 02:12:17;;;;;;;3.83;1.33;;;6.00;67.40;;;;;;3585730;40;20414;-78
2021/04/25 02:14:43;;;;;;;2.20;0.10;;;6.10;67.80;;;;;;3578145;40;20040;-78
2021/04/25 02:17:10;;;;;;;8.35;0.20;;;6.10;67.60;;;;;;3586584;40;20378;-78
2021/04/25 02:19:36;;;;;;;3.65;0.32;;;6.10;68.20;;;;;;3593641;40;20088;-79
2021/04/25 02:22:04;;;;;;;3.30;0.35;;;6.10;68.90;;;;;;3596911;40;20050;-79
2021/04/25 02:24:30;;;;;;;2.90;0.20;;;6.10;67.80;;;;;;3587084;40;20269;-78
2021/04/25 02:26:56;;;;;;;3.22;0.10;;;6.20;67.70;;;;;;3591132;40;20041;-78
2021/04/25 02:29:22;;;;;;;4.57;0.30;;;6.10;67.50;;;;;;3587005;40;20068;-78
2021/04/25 02:31:47;;;;;;;4.10;0.47;;;6.10;66.70;;;;;;3596624;40;20087;-78
2021/04/25 02:34:13;;;;;;;1.45;0.10;;;6.10;66.70;;;;;;3587316;40;20056;-78
2021/04/25 02:36:40;;;;;;;7.57;0.28;;;6.00;66.50;;;;;;3595911;39;20032;-78
2021/04/25 02:39:06;;;;;;;1.65;0.10;;;6.00;66.20;;;;;;3596603;39;20044;-79
2021/04/25 02:41:32;;;;;;;6.88;0.43;;;6.00;67.10;;;;;;3596592;40;20044;-78
2021/04/25 02:43:58;;;;;;;2.17;0.10;;;6.10;67.90;;;;;;3595640;40;20059;-79
2021/04/25 02:46:24;;;;;;;3.92;0.10;;;6.00;66.40;;;;;;3595951;39;20124;-78
2021/04/25 02:48:50;;;;;;;4.07;0.40;;;6.10;66.20;;;;;;3596562;40;20049;-79
2021/04/25 02:51:16;;;;;;;5.82;0.63;;;6.00;66.50;;;;;;3594071;40;20036;-78
2021/04/25 02:53:42;;;;;;;3.47;0.10;;;6.00;67.20;;;;;;3596764;39;20044;-79
2021/04/25 02:56:08;;;;;;;3.95;0.40;;;6.10;67.00;;;;;;3595455;40;20036;-78
2021/04/25 02:58:33;;;;;;;2.85;0.25;;;6.10;66.90;;;;;;3595587;40;20084;-78
2021/04/25 03:00:59;;;;;;;3.45;0.10;;;6.10;67.90;;;;;;3596020;40;20084;-79
2021/04/25 03:03:25;;;;;;;1.85;0.10;;;6.10;68.50;;;;;;3594842;40;20036;-78
2021/04/25 03:05:55;;;;;;;4.28;0.20;;;6.10;67.40;;;;;;3596668;39;20035;-79
2021/04/25 03:08:22;;;;;;;4.03;0.20;;;6.10;67.70;;;;;;3595575;40;20048;-79
2021/04/25 03:10:48;;;;;;;3.55;0.30;;;6.10;66.90;;;;;;3596735;39;20036;-79
2021/04/25 03:13:14;;;;;;;2.50;0.40;;;6.20;67.50;;;;;;3593795;40;20050;-78
2021/04/25 03:15:40;;;;;;;0.93;0.20;;;6.10;68.60;;;;;;3597155;23;20040;-79
2021/04/25 03:18:08;;;;;;;0.90;0.10;;;6.10;70.00;;;;;;3582436;40;20122;-78
2021/04/25 03:20:33;;;;;;;4.03;0.10;;;6.10;69.00;;;;;;3576316;40;20097;-79
2021/04/25 03:23:00;;;;;;;2.42;0.20;;;6.10;68.60;;;;;;3576380;40;20595;-79
2021/04/25 03:25:25;;;;;;;5.22;0.25;;;6.10;66.70;;;;;;3577193;40;20041;-79
2021/04/25 03:27:52;;;;;;;4.63;0.65;;;6.10;67.90;;;;;;3585394;40;20036;-79
2021/04/25 03:30:19;;;;;;;1.80;0.17;;;6.20;67.50;;;;;;3585442;40;20049;-79
2021/04/25 03:32:45;;;;;;;3.25;0.20;;;6.10;66.40;;;;;;3584901;40;20036;-79
2021/04/25 03:35:14;;;;;;;3.40;0.17;;;6.10;65.00;;;;;;3585929;40;20047;-79
2021/04/25 03:37:40;;;;;;;4.18;0.20;;;6.10;65.90;;;;;;3586483;40;20247;-79
2021/04/25 03:40:08;;;;;;;4.43;0.77;;;6.00;66.80;;;;;;3578881;40;20074;-79
2021/04/25 03:42:34;;;;;;;3.28;0.28;;;6.10;66.20;;;;;;3580855;40;20238;-78
2021/04/25 03:45:00;;;;;;;4.03;1.33;;;6.10;66.70;;;;;;3577158;40;20260;-79
2021/04/25 03:47:26;;;;;;;3.80;0.10;;;6.10;67.00;;;;;;3576033;40;20142;-79
2021/04/25 03:49:52;;;;;;;2.45;0.20;;;6.10;66.90;;;;;;3566904;40;20044;-79
2021/04/25 03:52:18;;;;;;;1.73;0.10;;;6.10;67.00;;;;;;3570628;40;20363;-79
2021/04/25 03:54:44;;;;;;;2.85;0.80;;;6.10;67.40;;;;;;3586256;40;20059;-79
2021/04/25 03:57:09;;;;;;;2.70;0.43;;;6.10;68.40;;;;;;3585885;40;20068;-78
2021/04/25 03:59:35;;;;;;;2.80;0.25;;;6.10;68.40;;;;;;3572473;40;20076;-79
2021/04/25 04:02:01;;;;;;;6.20;0.20;;;6.10;67.90;;;;;;3576821;40;20052;-79
2021/04/25 04:04:27;;;;;;;2.10;0.28;;;6.10;67.90;;;;;;3567154;40;20143;-78
2021/04/25 04:06:53;;;;;;;4.85;0.57;;;6.10;67.30;;;;;;3576298;40;20228;-80
2021/04/25 04:09:19;;;;;;;4.22;0.10;;;6.10;67.20;;;;;;3578265;40;20083;-79
2021/04/25 04:11:45;;;;;;;2.13;0.17;;;6.10;68.50;;;;;;3584853;40;20062;-78
2021/04/25 04:14:11;;;;;;;2.20;0.95;;;6.10;68.90;;;;;;3575912;40;20157;-78
2021/04/25 04:16:37;;;;;;;3.58;0.90;;;6.10;69.80;;;;;;3575760;40;20062;-78
2021/04/25 04:19:03;;;;;;;3.38;0.22;;;6.10;68.20;;;;;;3585938;40;20253;-79
2021/04/25 04:21:29;;;;;;;7.32;0.68;;;6.10;69.80;;;;;;3585733;40;20224;-78
2021/04/25 04:23:55;;;;;;;6.97;0.20;;;6.10;68.00;;;;;;3577230;40;20317;-79
2021/04/25 04:26:21;;;;;;;4.45;0.20;;;6.10;67.50;;;;;;3585290;40;20036;-78
2021/04/25 04:28:47;;;;;;;4.43;0.68;;;6.10;67.30;;;;;;3586080;40;20045;-78
2021/04/25 04:31:13;;;;;;;3.58;0.88;;;6.10;67.80;;;;;;3583486;40;20041;-78
2021/04/25 04:33:39;;;;;;;1.92;0.10;;;6.10;68.20;;;;;;3577015;40;20035;-78
2021/04/25 04:36:07;;;;;;;3.80;0.30;;;6.10;68.60;;;;;;3585832;40;20121;-78
2021/04/25 04:38:33;;;;;;;6.63;0.20;;;6.10;67.50;;;;;;3585876;40;20234;-78
2021/04/25 04:40:59;;;;;;;1.67;0.20;;;6.00;67.30;;;;;;3585905;40;20036;-79
2021/04/25 04:43:25;;;;;;;4.85;0.22;;;6.10;67.60;;;;;;3574511;40;20037;-78
2021/04/25 04:45:52;;;;;;;0.90;0.10;;;6.10;67.80;;;;;;3581730;40;20360;-78
2021/04/25 04:48:19;;;;;;;3.45;0.17;;;6.10;70.20;;;;;;3585401;40;20114;-78
2021/04/25 04:50:45;;;;;;;4.57;1.00;;;6.10;68.10;;;;;;3576512;40;20114;-78
2021/04/25 04:53:11;;;;;;;3.00;0.10;;;6.20;69.00;;;;;;3583696;40;20129;-77
2021/04/25 04:55:37;;;;;;;7.60;0.30;;;6.20;67.70;;;;;;3585394;40;20053;-78
2021/04/25 04:58:03;;;;;;;5.38;0.20;;;6.20;67.80;;;;;;3575382;40;20040;-78
2021/04/25 05:00:29;;;;;;;1.60;0.40;;;6.20;69.40;;;;;;3582846;40;20543;-78
2021/04/25 05:02:54;;;;;;;5.70;0.20;;;6.20;68.80;;;;;;3585561;40;20037;-77
2021/04/25 05:05:20;;;;;;;3.30;0.32;;;6.20;68.70;;;;;;3575741;40;20044;-79
2021/04/25 05:07:46;;;;;;;4.68;0.30;;;6.20;68.40;;;;;;3576119;40;20337;-78
2021/04/25 05:10:13;;;;;;;4.95;0.32;;;6.20;68.60;;;;;;3576602;40;20074;-78
2021/04/25 05:12:39;;;;;;;2.67;0.30;;;6.20;67.60;;;;;;3587266;40;20521;-79
2021/04/25 05:15:06;;;;;;;2.28;0.10;;;6.20;66.80;;;;;;3586741;40;20125;-78
2021/04/25 05:17:32;;;;;;;1.23;0.10;;;6.20;66.90;;;;;;3586773;40;20056;-78
2021/04/25 05:19:57;;;;;;;2.35;0.32;;;6.30;66.90;;;;;;3586284;40;20044;-78
2021/04/25 05:22:24;;;;;;;4.75;0.10;;;6.30;66.80;;;;;;3586434;40;20098;-77
2021/04/25 05:24:49;;;;;;;3.92;0.10;;;6.30;66.50;;;;;;3575946;40;20052;-77
2021/04/25 05:27:15;;;;;;;3.55;0.55;;;6.30;66.70;;;;;;3582409;40;20036;-77
2021/04/25 05:29:41;;;;;;;3.97;0.20;;;6.20;66.30;;;;;;3582890;40;20481;-78
2021/04/25 05:32:08;;;;;;;2.03;0.10;;;6.40;66.50;;;;;;3585212;40;20036;-77
2021/04/25 05:34:34;;;;;;;4.63;0.30;;;6.40;66.70;;;;;;3575059;40;20068;-77
2021/04/25 05:37:00;;;;;;;2.65;0.57;;;6.40;66.80;;;;;;3586122;40;20052;-77
2021/04/25 05:39:26;;;;;;;3.58;0.20;;;6.40;66.60;;;;;;3577230;40;20044;-77
2021/04/25 05:41:52;;;;;;;2.88;0.03;;;6.40;66.90;;;;;;3577691;40;20078;-77
2021/04/25 05:44:18;;;;;;;5.25;0.35;;;6.40;67.60;;;;;;3582297;40;20044;-77
2021/04/25 05:46:44;;;;;;;3.05;0.20;;;6.40;67.20;;;;;;3581876;40;20040;-77
2021/04/25 05:49:09;;;;;;;2.20;0.50;;;6.50;66.80;;;;;;3568133;40;20053;-76
2021/04/25 05:51:36;;;;;;;3.78;0.20;;;6.50;66.90;;;;;;3583138;40;20037;-77
2021/04/25 05:54:02;;;;;;;5.30;0.10;;;6.50;67.80;;;;;;3580945;40;20052;-77
2021/04/25 05:56:28;;;;;;;4.57;0.50;;;6.50;67.60;;;;;;3583551;40;20251;-77
2021/04/25 05:58:54;;;;;;;4.75;0.30;;;6.60;67.70;;;;;;3585630;40;20032;-77
2021/04/25 06:01:21;;;;;;;3.83;0.30;;;6.60;67.00;;;;;;3584914;40;20040;-77
2021/04/25 06:03:47;;;;;;;7.07;0.20;;;6.60;67.20;;;;;;3567750;40;20040;-77
2021/04/25 06:06:14;;;;;;;1.08;0.30;;;6.70;68.30;;;;;;3575541;40;20037;-77
2021/04/25 06:08:40;;;;;;;2.33;0.38;;;6.70;67.20;;;;;;3580778;40;20063;-77
2021/04/25 06:11:06;;;;;;;1.50;0.60;;;6.70;67.80;;;;;;3567617;40;20063;-78
2021/04/25 06:13:32;;;;;;;0.77;0.10;;;6.70;67.10;;;;;;3576964;40;20551;-77
2021/04/25 06:15:58;;;;;;;2.58;0.20;;;6.70;65.80;;;;;;3575595;40;20053;-78
2021/04/25 06:18:25;;;;;;;1.20;0.80;;;6.70;65.80;;;;;;3583101;40;20363;-77
2021/04/25 06:20:51;;;;;;;1.27;0.10;;;6.70;65.50;;;;;;3584746;40;20587;-77
2021/04/25 06:23:17;;;;;;;4.22;1.63;;;6.70;65.60;;;;;;3575387;40;20072;-77
2021/04/25 06:25:42;;;;;;;1.20;0.20;;;6.80;64.80;;;;;;3574199;40;20044;-77
2021/04/25 06:28:08;;;;;;;7.40;0.25;;;6.90;64.00;;;;;;3584297;40;20032;-77
2021/04/25 06:30:34;;;;;;;3.63;0.10;;;6.90;64.00;;;;;;3572354;40;20122;-77
2021/04/25 06:33:00;;;;;;;2.15;0.10;;;6.90;63.80;;;;;;3585091;40;20290;-78
2021/04/25 06:35:26;;;;;;;0.68;0.10;;;6.90;64.30;;;;;;3575281;40;20342;-78
2021/04/25 06:37:52;;;;;;;2.53;0.55;;;6.90;64.10;;;;;;3585418;40;20045;-78
2021/04/25 06:40:18;;;;;;;0.82;0.13;;;7.00;63.90;;;;;;3566945;40;20044;-77
2021/04/25 06:42:44;;;;;;;0.32;0.00;;;7.10;63.80;;;;;;3581020;40;20178;-78
2021/04/25 06:45:16;;;;;;;2.30;0.75;;;7.10;63.50;;;;;;3581779;40;20088;-77
2021/04/25 06:47:42;;;;;;;3.70;0.10;;;7.00;64.00;;;;;;3583544;40;20040;-77
2021/04/25 06:50:11;;;;;;;3.80;0.50;;;7.10;64.60;;;;;;3582604;40;20044;-78
2021/04/25 06:52:43;;;;;;;1.88;0.20;;;7.10;64.90;;;;;;3584925;40;20040;-78
2021/04/25 06:55:12;;;;;;;5.03;0.10;;;7.20;65.10;;;;;;3575219;40;20362;-78
2021/04/25 06:57:38;;;;;;;3.13;0.10;;;7.30;65.20;;;;;;3585835;40;20036;-78
2021/04/25 07:00:05;;;;;;;3.35;0.43;;;7.30;65.10;;;;;;3575327;40;20122;-77
2021/04/25 07:02:31;;;;;;;0.35;0.00;;;7.40;65.20;;;;;;3585286;40;20627;-78
2021/04/25 07:04:58;;;;;;;2.08;0.10;;;7.40;63.70;;;;;;3568761;40;20037;-77
2021/04/25 07:07:23;;;;;;;5.43;0.13;;;7.40;62.50;;;;;;3574105;40;20460;-78
2021/04/25 07:09:49;;;;;;;1.95;0.10;;;7.50;62.70;;;;;;3575186;40;20037;-78
2021/04/25 07:12:16;;;;;;;4.28;0.65;;;7.60;62.70;;;;;;3573846;40;20250;-78
2021/04/25 07:14:41;;;;;;;0.95;0.10;;;7.60;62.20;;;;;;3575247;40;20045;-77
2021/04/25 07:17:08;;;;;;;0.88;0.10;;;7.60;62.60;;;;;;3584761;40;20055;-78
2021/04/25 07:19:34;;;;;;;4.50;0.20;;;7.60;62.60;;;;;;3576610;40;20125;-78
2021/04/25 07:21:59;;;;;;;3.28;0.20;;;7.70;61.60;;;;;;3585797;40;20052;-77
2021/04/25 07:24:25;;;;;;;2.45;0.10;;;7.60;62.30;;;;;;3574127;40;20036;-77
2021/04/25 07:26:52;;;;;;;2.58;0.15;;;7.70;62.70;;;;;;3579239;40;20033;-77
2021/04/25 07:29:18;;;;;;;0.65;0.10;;;7.60;62.10;;;;;;3570472;40;20072;-77
2021/04/25 07:31:44;;;;;;;1.35;0.10;;;7.60;63.30;;;;;;3578531;40;20064;-77
2021/04/25 07:34:09;;;;;;;1.80;0.10;;;7.60;63.40;;;;;;3578288;40;20036;-77
2021/04/25 07:36:36;;;;;;;3.08;0.47;;;7.60;63.10;;;;;;3569230;40;20028;-77
2021/04/25 07:39:04;;;;;;;0.95;0.20;;;7.50;63.30;;;;;;3578245;40;20070;-77
2021/04/25 07:41:30;;;;;;;0.77;0.10;;;7.60;63.30;;;;;;3571241;40;20061;-77
2021/04/25 07:43:56;;;;;;;3.83;0.30;;;7.60;63.60;;;;;;3578221;40;20554;-78
2021/04/25 07:46:23;;;;;;;2.40;0.22;;;7.70;63.70;;;;;;3577568;40;20041;-78
2021/04/25 07:48:48;;;;;;;4.47;0.20;;;7.60;63.30;;;;;;3570258;40;20048;-77
2021/04/25 07:51:14;;;;;;;5.10;0.50;;;7.60;62.70;;;;;;3579576;40;20040;-78
2021/04/25 07:53:40;;;;;;;2.33;0.20;;;7.60;63.20;;;;;;3569715;40;20041;-78
2021/04/25 07:56:06;;;;;;;1.75;0.13;;;7.60;63.10;;;;;;3577466;40;20335;-78
2021/04/25 07:58:32;;;;;;;1.50;0.10;;;7.70;63.60;;;;;;3574758;40;20246;-77
2021/04/25 08:00:58;;;;;;;3.38;0.20;;;7.70;63.10;;;;;;3583387;40;20032;-78
2021/04/25 08:03:24;;;;;;;5.00;0.10;;;7.80;63.70;;;;;;3585662;40;20044;-77
2021/04/25 08:05:49;;;;;;;3.72;0.13;;;7.80;63.30;;;;;;3586091;40;20051;-78
2021/04/25 08:08:15;;;;;;;2.15;0.20;;;7.90;62.60;;;;;;3585554;40;20044;-78
2021/04/25 08:10:42;;;;;;;1.80;0.10;;;7.90;63.60;;;;;;3580928;40;20041;-78
2021/04/25 08:13:09;;;;;;;2.20;0.30;;;7.80;62.60;;;;;;3585032;40;20044;-78
2021/04/25 08:15:34;;;;;;;2.88;0.35;;;7.80;63.50;;;;;;3584839;40;20438;-78
2021/04/25 08:18:01;;;;;;;1.40;0.73;;;8.00;63.20;;;;;;3586002;40;20130;-78
2021/04/25 08:20:27;;;;;;;0.88;0.13;;;8.10;63.50;;;;;;3585291;40;20037;-79
2021/04/25 08:22:52;;;;;;;0.40;0.10;;;8.20;62.70;;;;;;3585878;40;20523;-79
2021/04/25 08:25:18;;;;;;;1.42;0.15;;;8.30;61.80;;;;;;3566372;40;20051;-78
2021/04/25 08:27:44;;;;;;;3.35;0.28;;;8.40;61.20;;;;;;3584069;40;20446;-78
2021/04/25 08:30:11;;;;;;;2.90;0.90;;;8.40;61.90;;;;;;3573849;40;20044;-79
2021/04/25 08:32:37;;;;;;;1.60;0.15;;;8.60;59.10;;;;;;3576575;40;20051;-78
2021/04/25 08:35:04;;;;;;;1.40;0.17;;;8.60;59.30;;;;;;3580356;40;20056;-78
2021/04/25 08:37:30;;;;;;;1.95;0.95;;;8.60;58.80;;;;;;3563750;40;20040;-77
2021/04/25 08:39:56;;;;;;;1.95;0.17;;;8.60;59.70;;;;;;3581801;40;20345;-78
2021/04/25 08:42:22;;;;;;;2.65;0.20;;;8.70;60.30;;;;;;3583753;40;20036;-79
2021/04/25 08:44:48;;;;;;;3.30;0.13;;;8.80;60.00;;;;;;3584773;40;20052;-79
2021/04/25 08:47:15;;;;;;;4.03;0.20;;;9.00;61.00;;;;;;3586906;40;20032;-77
2021/04/25 08:49:42;;;;;;;3.40;0.10;;;9.10;60.00;;;;;;3586990;40;20040;-78
2021/04/25 08:52:10;;;;;;;4.13;1.00;;;9.40;59.80;;;;;;3586473;40;20040;-79
2021/04/25 08:54:35;;;;;;;3.80;0.47;;;9.80;58.60;;;;;;3586548;40;20076;-78
2021/04/25 08:57:01;;;;;;;5.40;0.88;;;9.80;59.80;;;;;;3587202;40;20274;-78
2021/04/25 08:59:27;;;;;;;2.20;0.17;;;10.00;60.00;;;;;;3577506;40;20218;-78
2021/04/25 09:01:53;;;;;;;3.15;0.10;;;10.00;60.00;;;;;;3582221;40;20037;-78
2021/04/25 09:04:19;;;;;;;4.63;0.20;;;10.00;60.30;;;;;;3581208;40;20040;-78
2021/04/25 09:07:15;;;;;;;3.97;0.30;;;10.00;61.50;;;;;;3586940;40;20040;-78
2021/04/25 09:09:50;;;;;;;2.92;0.20;;;10.00;59.60;;;;;;3580336;40;20029;-78
2021/04/25 09:12:32;;;;;;;7.60;0.28;;;10.00;61.60;;;;;;3577678;40;20042;-78
2021/04/25 09:14:59;;;;;;;4.43;0.20;;;9.90;59.60;;;;;;3577706;40;20056;-78
2021/04/25 09:17:26;;;;;;;2.70;0.10;;;9.80;62.50;;;;;;3577716;40;20044;-79
2021/04/25 09:19:51;;;;;;;4.15;0.20;;;9.90;62.00;;;;;;3585809;40;20041;-78
2021/04/25 09:22:18;;;;;;;1.58;0.10;;;9.90;61.00;;;;;;3586672;40;20047;-79
2021/04/25 09:24:45;;;;;;;2.30;0.20;;;9.90;62.50;;;;;;3587088;40;20086;-78
2021/04/25 09:27:12;;;;;;;2.92;0.20;;;9.90;62.10;;;;;;3575921;40;20040;-79
2021/04/25 09:29:50;;;;;;;4.32;0.20;;;10.00;62.40;;;;;;3576366;40;20335;-79
2021/04/25 09:32:23;;;;;;;5.80;1.05;;;10.10;61.00;;;;;;3583328;40;20432;-78
2021/04/25 09:34:50;;;;;;;2.22;0.20;;;10.20;62.10;;;;;;3583786;40;20311;-78
2021/04/25 09:37:18;;;;;;;2.42;0.30;;;10.30;59.80;;;;;;3576801;40;20053;-80
2021/04/25 09:40:08;;;;;;;3.72;0.20;;;10.30;60.80;;;;;;3584888;40;20076;-79
2021/04/25 09:42:54;;;;;;;2.55;0.20;;;10.20;60.50;;;;;;3576913;40;20077;-79
2021/04/25 09:45:25;;;;;;;3.75;0.32;;;10.40;61.00;;;;;;3582745;40;20390;-79
2021/04/25 09:47:51;;;;;;;1.52;0.20;;;10.50;61.00;;;;;;3585586;40;20044;-79
2021/04/25 09:50:21;;;;;;;2.10;0.20;;;10.40;60.90;;;;;;3576530;40;20044;-78
2021/04/25 09:52:50;;;;;;;7.30;0.55;;;10.50;63.10;;;;;;3576000;40;20073;-79
2021/04/25 09:55:28;;;;;;;3.42;0.20;;;10.70;62.10;;;;;;3581418;40;20048;-79
2021/04/25 09:58:03;;;;;;;6.40;0.43;;;11.10;62.70;;;;;;3575765;40;20041;-78
2021/04/25 10:00:40;;;;;;;3.38;0.20;;;11.40;61.40;;;;;;3583417;40;20324;-79
2021/04/25 10:03:10;;;;;;;4.55;0.22;;;11.50;60.70;;;;;;3583471;40;20048;-77
2021/04/25 10:05:38;;;;;;;2.53;0.20;;;11.70;61.00;;;;;;3585284;40;20336;-78
2021/04/25 10:08:04;;;;;;;1.38;0.30;;;11.60;61.40;;;;;;3576741;40;20044;-78
2021/04/25 10:10:30;;;;;;;4.13;0.25;;;11.60;60.60;;;;;;3576426;40;20056;-78
2021/04/25 10:12:57;;;;;;;3.13;0.20;;;11.70;60.40;;;;;;3586145;40;20040;-78
2021/04/25 10:15:24;;;;;;;3.78;0.20;;;11.80;61.70;;;;;;3585916;40;20055;-79
2021/04/25 10:17:52;;;;;;;2.88;0.40;;;11.90;61.30;;;;;;3583640;40;20338;-78
2021/04/25 10:20:20;;;;;;;4.50;0.28;;;12.00;60.30;;;;;;3581738;40;20121;-78
2021/04/25 10:22:48;;;;;;;4.97;0.20;;;12.00;59.40;;;;;;3584181;40;20043;-79
2021/04/25 10:25:17;;;;;;;2.58;0.60;;;12.10;55.60;;;;;;3583635;40;20047;-78
2021/04/25 10:27:48;;;;;;;4.70;0.85;;;12.10;59.90;;;;;;3581040;40;20051;-78
2021/04/25 10:30:15;;;;;;;2.28;0.20;;;12.20;60.00;;;;;;3571846;40;20040;-79
2021/04/25 10:32:43;;;;;;;5.95;0.25;;;12.50;57.40;;;;;;3574237;40;20037;-77
2021/04/25 10:35:21;;;;;;;2.55;0.75;;;12.50;58.50;;;;;;3584296;40;20051;-78
2021/04/25 10:37:49;;;;;;;1.60;0.20;;;12.50;57.00;;;;;;3583054;40;20057;-79
2021/04/25 10:40:30;;;;;;;4.05;0.20;;;12.60;58.00;;;;;;3584828;40;20072;-78
2021/04/25 10:43:07;;;;;;;4.78;0.20;;;12.70;57.80;;;;;;3577121;40;20157;-78
2021/04/25 10:45:55;;;;;;;3.15;0.28;;;12.80;57.10;;;;;;3576624;40;20036;-78
2021/04/25 10:48:23;;;;;;;1.95;0.20;;;12.90;58.90;;;;;;3585790;40;20033;-79
2021/04/25 10:50:52;;;;;;;4.35;0.20;;;13.10;53.60;;;;;;3583087;40;20085;-78
2021/04/25 10:53:22;;;;;;;2.55;0.20;;;13.20;56.50;;;;;;3573019;40;20237;-78
2021/04/25 10:55:51;;;;;;;5.25;0.28;;;13.20;55.00;;;;;;3577110;40;20028;-78
2021/04/25 10:58:21;;;;;;;4.30;0.20;;;13.10;55.50;;;;;;3581935;40;20175;-78
2021/04/25 11:00:48;;;;;;;3.80;0.25;;;13.10;57.10;;;;;;3584478;40;20111;-78
2021/04/25 11:03:20;;;;;;;4.63;0.43;;;13.20;56.60;;;;;;3583296;40;20085;-79
2021/04/25 11:05:50;;;;;;;2.97;0.20;;;13.30;53.60;;;;;;3585376;40;20224;-78
2021/04/25 11:08:16;;;;;;;5.00;0.20;;;13.20;56.00;;;;;;3584455;40;20131;-79
2021/04/25 11:10:58;;;;;;;4.00;0.20;;;13.20;50.90;;;;;;3585976;40;20107;-78
2021/04/25 11:13:40;;;;;;;5.18;1.30;;;13.00;54.20;;;;;;3584009;40;20048;-78
2021/04/25 11:16:13;;;;;;;6.57;0.38;;;13.00;55.80;;;;;;3584103;40;20083;-78
2021/04/25 11:19:03;;;;;;;3.50;0.22;;;13.00;55.40;;;;;;3586264;40;20040;-78
2021/04/25 11:21:31;;;;;;;3.17;0.22;;;13.10;54.20;;;;;;3584097;40;20075;-78
2021/04/25 11:24:01;;;;;;;3.03;1.00;;;13.40;56.40;;;;;;3574866;40;20125;-78
2021/04/25 11:26:36;;;;;;;1.10;0.63;;;13.60;55.20;;;;;;3576096;40;20056;-78
2021/04/25 11:29:02;;;;;;;3.88;0.20;;;13.70;52.00;;;;;;3576801;40;20045;-78
2021/04/25 11:31:46;;;;;;;3.50;0.20;;;13.70;51.50;;;;;;3576510;40;20068;-78
2021/04/25 11:34:34;;;;;;;2.17;0.20;;;13.70;52.20;;;;;;3585677;40;20072;-78
2021/04/25 11:37:02;;;;;;;3.28;0.50;;;13.90;52.20;;;;;;3584178;40;20130;-78
2021/04/25 11:39:32;;;;;;;2.75;0.22;;;14.00;53.50;;;;;;3576647;40;20051;-78
2021/04/25 11:41:59;;;;;;;2.83;0.47;;;13.80;50.30;;;;;;3577128;40;20370;-79
2021/04/25 11:44:30;;;;;;;1.48;0.17;;;13.40;51.60;;;;;;3586161;40;21333;-78
2021/04/25 11:46:58;;;;;;;5.70;0.30;;;13.30;52.50;;;;;;3580838;40;20046;-78
2021/04/25 11:49:30;;;;;;;2.58;0.20;;;13.20;53.30;;;;;;3585780;40;20056;-78
2021/04/25 11:52:18;;;;;;;7.32;0.50;;;13.20;49.10;;;;;;3585890;40;20040;-79
2021/04/25 11:54:59;;;;;;;6.63;0.55;;;13.10;51.50;;;;;;3586029;40;20046;-79
2021/04/25 11:57:26;;;;;;;4.38;0.30;;;13.30;53.00;;;;;;3585788;40;20036;-78
2021/04/25 11:59:55;;;;;;;2.92;0.68;;;13.60;53.80;;;;;;3576836;40;20129;-79
2021/04/25 12:02:27;;;;;;;3.22;0.20;;;13.80;53.60;;;;;;3576381;40;20051;-79
2021/04/25 12:04:56;;;;;;;2.47;0.20;;;13.90;53.10;;;;;;3585775;40;20068;-78
2021/04/25 12:07:41;;;;;;;3.08;0.20;;;13.90;53.30;;;;;;3585720;40;20051;-78
2021/04/25 12:10:16;;;;;;;2.60;0.20;;;13.80;50.20;;;;;;3585552;40;20040;-78
2021/04/25 12:13:07;;;;;;;3.25;0.20;;;13.70;52.00;;;;;;3585896;40;20044;-79
2021/04/25 12:15:45;;;;;;;2.58;0.17;;;13.70;49.60;;;;;;3576406;40;20032;-79
2021/04/25 12:18:13;;;;;;;2.80;0.15;;;13.80;51.40;;;;;;3585491;40;20040;-78
2021/04/25 12:20:43;;;;;;;2.25;0.30;;;13.80;48.60;;;;;;3568195;40;20045;-78
2021/04/25 12:23:14;;;;;;;1.27;0.20;;;13.80;48.90;;;;;;3586002;40;20040;-79
2021/04/25 12:25:40;;;;;;;2.92;0.20;;;13.70;51.90;;;;;;3587096;40;20084;-78
2021/04/25 12:28:07;;;;;;;2.58;0.22;;;13.70;52.30;;;;;;3569612;40;20044;-78
2021/04/25 12:30:33;;;;;;;5.22;0.20;;;13.70;53.70;;;;;;3574686;40;20047;-78
2021/04/25 12:33:19;;;;;;;5.07;0.88;;;13.80;54.40;;;;;;3587672;40;20055;-78
2021/04/25 12:35:48;;;;;;;6.00;0.52;;;14.10;52.60;;;;;;3574475;40;20070;-78
2021/04/25 12:38:42;;;;;;;4.25;0.20;;;14.30;52.80;;;;;;3586730;40;20044;-78
2021/04/25 12:41:13;;;;;;;2.20;0.15;;;14.10;47.70;;;;;;3576594;40;20635;-78
2021/04/25 12:43:45;;;;;;;3.50;0.43;;;13.70;53.00;;;;;;3587477;40;20446;-78
2021/04/25 12:46:20;;;;;;;3.47;0.20;;;13.70;52.60;;;;;;3587046;40;20044;-78
2021/04/25 12:49:00;;;;;;;4.70;0.28;;;13.80;52.80;;;;;;3587398;40;20048;-78
2021/04/25 12:51:28;;;;;;;5.03;0.30;;;13.80;50.50;;;;;;3586804;40;20040;-78
2021/04/25 12:53:56;;;;;;;3.35;0.22;;;13.70;51.80;;;;;;3587196;40;20549;-78
2021/04/25 12:56:24;;;;;;;2.22;0.20;;;13.80;52.50;;;;;;3586794;40;20080;-78
2021/04/25 12:59:02;;;;;;;2.65;0.28;;;13.90;52.30;;;;;;3586992;40;20036;-78